White Post, Virginia
Current Conditions -  °F | °C
As of 8:15 PM on Friday 24 Oct 2014 (Local Time) from KOKV Reporting Station
Clear Clear  
Wind Chill: 55°   Ceiling: Unl
Heat Index: 55°   Visibility: 10mi
Dew Point: 30°   Wind: 9mph
Humidity: 38%   Direction: 310°NW
Pressure: 29.97"   Gusts: NA
Location:  39.06°N, 78.1°W
Report Text: KOKV 250015Z AUTO 31008KT 10SM CLR 13/M01 A2997 RMK AO2
Loading
Personal Weather Stations






























Interactive Weather Map
Tropical Storm Tracking
New forecast layout! Learn more

10-Day Weather Forecast

Advertisements
Track Severe Weather on mobile